sensor_id;sensor_type;location;lat;lon;timestamp;pressure;altitude;pressure_sealevel;temperature;humidity
65872;BME280;52653;50.080;21.992;2022-12-05T00:01:30;100007.89;;;0.43;90.58
65872;BME280;52653;50.080;21.992;2022-12-05T00:04:04;100004.68;;;0.40;90.57
65872;BME280;52653;50.080;21.992;2022-12-05T00:06:37;99997.75;;;0.40;90.50
65872;BME280;52653;50.080;21.992;2022-12-05T00:09:11;99997.79;;;0.41;90.67
65872;BME280;52653;50.080;21.992;2022-12-05T00:11:44;99998.45;;;0.40;90.80
65872;BME280;52653;50.080;21.992;2022-12-05T00:14:16;99992.11;;;0.41;90.72
65872;BME280;52653;50.080;21.992;2022-12-05T00:16:48;99989.20;;;0.42;90.62
65872;BME280;52653;50.080;21.992;2022-12-05T00:19:20;99983.28;;;0.40;90.76
65872;BME280;52653;50.080;21.992;2022-12-05T00:21:52;99984.34;;;0.37;90.91
65872;BME280;52653;50.080;21.992;2022-12-05T00:24:24;99980.52;;;0.33;91.06
65872;BME280;52653;50.080;21.992;2022-12-05T00:26:56;99975.87;;;0.29;91.28
65872;BME280;52653;50.080;21.992;2022-12-05T00:29:28;99982.60;;;0.29;91.48
65872;BME280;52653;50.080;21.992;2022-12-05T00:32:00;99982.91;;;0.32;91.30
65872;BME280;52653;50.080;21.992;2022-12-05T00:34:32;99980.55;;;0.37;91.31
65872;BME280;52653;50.080;21.992;2022-12-05T00:37:04;99985.58;;;0.42;91.09
65872;BME280;52653;50.080;21.992;2022-12-05T00:39:36;99981.79;;;0.45;91.02
65872;BME280;52653;50.080;21.992;2022-12-05T00:42:07;99982.38;;;0.47;90.87
65872;BME280;52653;50.080;21.992;2022-12-05T00:44:40;99985.42;;;0.50;90.89
65872;BME280;52653;50.080;21.992;2022-12-05T00:47:11;99989.04;;;0.50;90.89
65872;BME280;52653;50.080;21.992;2022-12-05T00:49:43;99989.81;;;0.48;90.85
65872;BME280;52653;50.080;21.992;2022-12-05T00:52:16;99980.33;;;0.44;91.12
65872;BME280;52653;50.080;21.992;2022-12-05T00:54:48;99974.84;;;0.40;91.30
65872;BME280;52653;50.080;21.992;2022-12-05T00:57:19;99973.19;;;0.38;91.35
65872;BME280;52653;50.080;21.992;2022-12-05T00:59:51;99973.21;;;0.39;91.35
65872;BME280;52653;50.080;21.992;2022-12-05T01:02:24;99967.76;;;0.41;91.26
65872;BME280;52653;50.080;21.992;2022-12-05T01:04:56;99968.55;;;0.43;91.06
65872;BME280;52653;50.080;21.992;2022-12-05T01:07:28;99962.98;;;0.45;91.24
65872;BME280;52653;50.080;21.992;2022-12-05T01:09:59;99966.38;;;0.48;91.06
65872;BME280;52653;50.080;21.992;2022-12-05T01:12:31;99959.35;;;0.50;91.01
65872;BME280;52653;50.080;21.992;2022-12-05T01:15:05;99964.16;;;0.49;91.01
65872;BME280;52653;50.080;21.992;2022-12-05T01:17:37;99967.26;;;0.49;91.22
65872;BME280;52653;50.080;21.992;2022-12-05T01:20:10;99967.10;;;0.45;91.18
65872;BME280;52653;50.080;21.992;2022-12-05T01:22:42;99971.82;;;0.43;91.31
65872;BME280;52653;50.080;21.992;2022-12-05T01:25:14;99966.92;;;0.41;91.37
65872;BME280;52653;50.080;21.992;2022-12-05T01:27:46;99964.05;;;0.43;91.37
65872;BME280;52653;50.080;21.992;2022-12-05T01:30:18;99963.56;;;0.47;91.37
65872;BME280;52653;50.080;21.992;2022-12-05T01:32:50;99961.13;;;0.50;91.07
65872;BME280;52653;50.080;21.992;2022-12-05T01:35:22;99956.79;;;0.54;91.08
65872;BME280;52653;50.080;21.992;2022-12-05T01:37:54;99958.16;;;0.57;90.99
65872;BME280;52653;50.080;21.992;2022-12-05T01:40:26;99955.71;;;0.61;90.88
65872;BME280;52653;50.080;21.992;2022-12-05T01:42:58;99951.15;;;0.63;90.83
65872;BME280;52653;50.080;21.992;2022-12-05T01:45:34;99948.16;;;0.62;90.66
65872;BME280;52653;50.080;21.992;2022-12-05T01:48:10;99947.73;;;0.60;90.93
65872;BME280;52653;50.080;21.992;2022-12-05T01:50:43;99950.02;;;0.57;90.94
65872;BME280;52653;50.080;21.992;2022-12-05T01:53:15;99957.61;;;0.53;91.17
65872;BME280;52653;50.080;21.992;2022-12-05T01:55:49;99953.20;;;0.51;91.16
65872;BME280;52653;50.080;21.992;2022-12-05T01:58:22;99952.11;;;0.50;91.25
65872;BME280;52653;50.080;21.992;2022-12-05T02:00:54;99950.12;;;0.51;91.33
65872;BME280;52653;50.080;21.992;2022-12-05T02:03:26;99946.80;;;0.54;91.46
65872;BME280;52653;50.080;21.992;2022-12-05T02:05:58;99946.91;;;0.57;91.31
65872;BME280;52653;50.080;21.992;2022-12-05T02:08:30;99945.64;;;0.60;91.25
65872;BME280;52653;50.080;21.992;2022-12-05T02:11:04;99946.45;;;0.62;91.03
65872;BME280;52653;50.080;21.992;2022-12-05T02:13:48;99944.32;;;0.65;91.04
65872;BME280;52653;50.080;21.992;2022-12-05T02:16:29;99941.64;;;0.63;90.92
65872;BME280;52653;50.080;21.992;2022-12-05T02:19:19;99937.85;;;0.59;91.13
65872;BME280;52653;50.080;21.992;2022-12-05T02:22:19;99931.45;;;0.54;91.24
65872;BME280;52653;50.080;21.992;2022-12-05T02:28:08;99924.78;;;0.52;91.60
65872;BME280;52653;50.080;21.992;2022-12-05T02:30:48;99927.61;;;0.53;91.55
65872;BME280;52653;50.080;21.992;2022-12-05T02:33:26;99923.55;;;0.55;91.42
65872;BME280;52653;50.080;21.992;2022-12-05T02:36:04;99918.14;;;0.58;91.55
65872;BME280;52653;50.080;21.992;2022-12-05T02:38:38;99917.21;;;0.61;91.26
65872;BME280;52653;50.080;21.992;2022-12-05T02:41:18;99915.05;;;0.63;91.34
65872;BME280;52653;50.080;21.992;2022-12-05T02:43:58;99917.84;;;0.63;91.24
65872;BME280;52653;50.080;21.992;2022-12-05T02:46:34;99924.15;;;0.65;91.30
65872;BME280;52653;50.080;21.992;2022-12-05T02:49:10;99924.02;;;0.66;91.07
65872;BME280;52653;50.080;21.992;2022-12-05T02:51:47;99929.70;;;0.66;91.11
65872;BME280;52653;50.080;21.992;2022-12-05T02:54:23;99922.89;;;0.65;91.35
65872;BME280;52653;50.080;21.992;2022-12-05T02:56:57;99918.18;;;0.60;91.41
65872;BME280;52653;50.080;21.992;2022-12-05T02:59:30;99925.90;;;0.54;91.53
65872;BME280;52653;50.080;21.992;2022-12-05T03:02:02;99923.55;;;0.51;91.66
65872;BME280;52653;50.080;21.992;2022-12-05T03:04:34;99922.05;;;0.52;91.74
65872;BME280;52653;50.080;21.992;2022-12-05T03:07:08;99923.36;;;0.55;91.83
65872;BME280;52653;50.080;21.992;2022-12-05T03:09:44;99924.86;;;0.58;91.72
65872;BME280;52653;50.080;21.992;2022-12-05T03:12:20;99928.54;;;0.63;91.85
65872;BME280;52653;50.080;21.992;2022-12-05T03:14:55;99922.77;;;0.69;91.61
65872;BME280;52653;50.080;21.992;2022-12-05T03:17:32;99916.45;;;0.71;91.39
65872;BME280;52653;50.080;21.992;2022-12-05T03:20:08;99919.38;;;0.71;91.19
65872;BME280;52653;50.080;21.992;2022-12-05T03:22:45;99914.14;;;0.70;91.42
65872;BME280;52653;50.080;21.992;2022-12-05T03:25:20;99915.36;;;0.66;91.37
65872;BME280;52653;50.080;21.992;2022-12-05T03:28:01;99910.04;;;0.63;91.63
65872;BME280;52653;50.080;21.992;2022-12-05T03:30:38;99909.50;;;0.62;91.46
65872;BME280;52653;50.080;21.992;2022-12-05T03:33:12;99914.78;;;0.64;91.62
65872;BME280;52653;50.080;21.992;2022-12-05T03:35:50;99918.31;;;0.66;91.52
65872;BME280;52653;50.080;21.992;2022-12-05T03:38:27;99917.92;;;0.69;91.42
65872;BME280;52653;50.080;21.992;2022-12-05T03:41:07;99920.42;;;0.75;91.26
65872;BME280;52653;50.080;21.992;2022-12-05T03:43:47;99925.66;;;0.80;91.15
65872;BME280;52653;50.080;21.992;2022-12-05T03:46:25;99925.17;;;0.81;90.92
65872;BME280;52653;50.080;21.992;2022-12-05T03:49:00;99927.50;;;0.79;90.77
65872;BME280;52653;50.080;21.992;2022-12-05T03:51:37;99927.98;;;0.78;91.21
65872;BME280;52653;50.080;21.992;2022-12-05T03:54:15;99927.17;;;0.76;91.14
65872;BME280;52653;50.080;21.992;2022-12-05T03:56:51;99920.66;;;0.73;91.30
65872;BME280;52653;50.080;21.992;2022-12-05T03:59:29;99913.60;;;0.73;91.31
65872;BME280;52653;50.080;21.992;2022-12-05T04:02:06;99911.06;;;0.74;91.17
65872;BME280;52653;50.080;21.992;2022-12-05T04:04:41;99907.33;;;0.76;91.15
65872;BME280;52653;50.080;21.992;2022-12-05T04:07:16;99904.73;;;0.75;91.08
65872;BME280;52653;50.080;21.992;2022-12-05T04:09:51;99904.25;;;0.77;91.19
65872;BME280;52653;50.080;21.992;2022-12-05T04:12:27;99903.84;;;0.79;91.03
65872;BME280;52653;50.080;21.992;2022-12-05T04:15:05;99901.27;;;0.79;91.01
65872;BME280;52653;50.080;21.992;2022-12-05T04:17:44;99897.57;;;0.77;91.03
65872;BME280;52653;50.080;21.992;2022-12-05T04:20:27;99896.81;;;0.72;91.15
65872;BME280;52653;50.080;21.992;2022-12-05T04:23:19;99901.58;;;0.66;91.23
65872;BME280;52653;50.080;21.992;2022-12-05T04:26:00;99901.48;;;0.64;91.56
65872;BME280;52653;50.080;21.992;2022-12-05T04:28:37;99901.95;;;0.63;91.50
65872;BME280;52653;50.080;21.992;2022-12-05T04:31:13;99902.73;;;0.65;91.50
65872;BME280;52653;50.080;21.992;2022-12-05T04:33:50;99898.06;;;0.69;91.56
65872;BME280;52653;50.080;21.992;2022-12-05T04:36:28;99894.59;;;0.73;91.55
65872;BME280;52653;50.080;21.992;2022-12-05T04:39:05;99890.89;;;0.75;91.37
65872;BME280;52653;50.080;21.992;2022-12-05T04:41:50;99893.54;;;0.76;91.19
65872;BME280;52653;50.080;21.992;2022-12-05T04:44:28;99888.58;;;0.74;91.27
65872;BME280;52653;50.080;21.992;2022-12-05T04:47:04;99883.30;;;0.71;91.34
65872;BME280;52653;50.080;21.992;2022-12-05T04:49:38;99888.17;;;0.68;91.69
65872;BME280;52653;50.080;21.992;2022-12-05T04:52:12;99882.67;;;0.64;91.66
65872;BME280;52653;50.080;21.992;2022-12-05T04:54:47;99885.85;;;0.63;91.68
65872;BME280;52653;50.080;21.992;2022-12-05T04:57:24;99884.52;;;0.64;91.75
65872;BME280;52653;50.080;21.992;2022-12-05T04:59:58;99882.02;;;0.65;91.73
65872;BME280;52653;50.080;21.992;2022-12-05T05:02:33;99882.84;;;0.68;91.88
65872;BME280;52653;50.080;21.992;2022-12-05T05:05:11;99878.66;;;0.72;91.54
65872;BME280;52653;50.080;21.992;2022-12-05T05:07:45;99876.96;;;0.72;91.53
65872;BME280;52653;50.080;21.992;2022-12-05T05:10:21;99879.14;;;0.75;91.61
65872;BME280;52653;50.080;21.992;2022-12-05T05:12:57;99879.31;;;0.75;91.57
65872;BME280;52653;50.080;21.992;2022-12-05T05:15:30;99882.27;;;0.75;91.59
65872;BME280;52653;50.080;21.992;2022-12-05T05:18:02;99880.40;;;0.72;91.70
65872;BME280;52653;50.080;21.992;2022-12-05T05:20:34;99883.06;;;0.69;91.81
65872;BME280;52653;50.080;21.992;2022-12-05T05:23:06;99888.26;;;0.70;91.69
65872;BME280;52653;50.080;21.992;2022-12-05T05:25:38;99889.03;;;0.72;91.83
65872;BME280;52653;50.080;21.992;2022-12-05T05:28:11;99888.26;;;0.74;91.66
65872;BME280;52653;50.080;21.992;2022-12-05T05:30:43;99891.98;;;0.76;91.60
65872;BME280;52653;50.080;21.992;2022-12-05T05:33:15;99891.32;;;0.81;91.53
65872;BME280;52653;50.080;21.992;2022-12-05T05:35:47;99895.02;;;0.83;91.36
65872;BME280;52653;50.080;21.992;2022-12-05T05:38:19;99893.16;;;0.84;91.28
65872;BME280;52653;50.080;21.992;2022-12-05T05:40:51;99888.91;;;0.85;91.52
65872;BME280;52653;50.080;21.992;2022-12-05T05:43:22;99893.66;;;0.83;91.36
65872;BME280;52653;50.080;21.992;2022-12-05T05:45:54;99893.71;;;0.80;91.50
65872;BME280;52653;50.080;21.992;2022-12-05T05:48:26;99892.27;;;0.79;91.71
65872;BME280;52653;50.080;21.992;2022-12-05T05:51:00;99893.46;;;0.78;91.64
65872;BME280;52653;50.080;21.992;2022-12-05T05:53:32;99893.34;;;0.80;91.66
65872;BME280;52653;50.080;21.992;2022-12-05T05:56:06;99895.53;;;0.82;91.54
65872;BME280;52653;50.080;21.992;2022-12-05T05:58:39;99895.23;;;0.84;91.55
65872;BME280;52653;50.080;21.992;2022-12-05T06:01:13;99890.83;;;0.86;91.46
65872;BME280;52653;50.080;21.992;2022-12-05T06:03:45;99895.04;;;0.88;91.36
65872;BME280;52653;50.080;21.992;2022-12-05T06:06:17;99896.02;;;0.86;91.14
65872;BME280;52653;50.080;21.992;2022-12-05T06:08:50;99892.84;;;0.84;91.31
65872;BME280;52653;50.080;21.992;2022-12-05T06:11:23;99894.48;;;0.82;91.47
65872;BME280;52653;50.080;21.992;2022-12-05T06:13:58;99898.31;;;0.79;91.59
65872;BME280;52653;50.080;21.992;2022-12-05T06:16:32;99900.91;;;0.75;91.70
65872;BME280;52653;50.080;21.992;2022-12-05T06:19:04;99900.66;;;0.73;91.80
65872;BME280;52653;50.080;21.992;2022-12-05T06:21:35;99902.27;;;0.75;91.69
65872;BME280;52653;50.080;21.992;2022-12-05T06:24:08;99903.00;;;0.76;91.73
65872;BME280;52653;50.080;21.992;2022-12-05T06:26:40;99901.83;;;0.76;91.74
65872;BME280;52653;50.080;21.992;2022-12-05T06:29:13;99905.65;;;0.77;91.83
65872;BME280;52653;50.080;21.992;2022-12-05T06:31:45;99906.75;;;0.78;91.78
65872;BME280;52653;50.080;21.992;2022-12-05T06:34:17;99906.31;;;0.80;91.53
65872;BME280;52653;50.080;21.992;2022-12-05T06:36:48;99909.02;;;0.83;91.44
65872;BME280;52653;50.080;21.992;2022-12-05T06:39:20;99908.82;;;0.87;91.43
65872;BME280;52653;50.080;21.992;2022-12-05T06:41:52;99905.56;;;0.87;91.40
65872;BME280;52653;50.080;21.992;2022-12-05T06:44:24;99907.74;;;0.86;91.32
65872;BME280;52653;50.080;21.992;2022-12-05T06:46:58;99903.80;;;0.82;91.31
65872;BME280;52653;50.080;21.992;2022-12-05T06:49:30;99904.18;;;0.79;91.43
65872;BME280;52653;50.080;21.992;2022-12-05T06:52:07;99900.46;;;0.77;91.49
65872;BME280;52653;50.080;21.992;2022-12-05T06:54:39;99898.88;;;0.76;91.53
65872;BME280;52653;50.080;21.992;2022-12-05T06:57:11;99895.86;;;0.78;91.49
65872;BME280;52653;50.080;21.992;2022-12-05T06:59:43;99898.17;;;0.80;91.47
65872;BME280;52653;50.080;21.992;2022-12-05T07:02:16;99899.29;;;0.81;91.51
65872;BME280;52653;50.080;21.992;2022-12-05T07:04:48;99898.21;;;0.85;91.37
65872;BME280;52653;50.080;21.992;2022-12-05T07:07:20;99901.39;;;0.90;91.10
65872;BME280;52653;50.080;21.992;2022-12-05T07:09:52;99900.98;;;0.97;91.31
65872;BME280;52653;50.080;21.992;2022-12-05T07:12:24;99895.14;;;1.02;90.91
65872;BME280;52653;50.080;21.992;2022-12-05T07:14:56;99899.88;;;1.04;90.73
65872;BME280;52653;50.080;21.992;2022-12-05T07:17:28;99895.25;;;1.05;90.88
65872;BME280;52653;50.080;21.992;2022-12-05T07:20:00;99905.02;;;1.07;90.91
65872;BME280;52653;50.080;21.992;2022-12-05T07:22:33;99900.75;;;1.08;90.90
65872;BME280;52653;50.080;21.992;2022-12-05T07:25:06;99904.69;;;1.12;90.69
65872;BME280;52653;50.080;21.992;2022-12-05T07:27:39;99905.19;;;1.20;90.62
65872;BME280;52653;50.080;21.992;2022-12-05T07:30:12;99905.17;;;1.28;90.40
65872;BME280;52653;50.080;21.992;2022-12-05T07:32:44;99900.98;;;1.35;90.17
65872;BME280;52653;50.080;21.992;2022-12-05T07:35:16;99902.31;;;1.47;90.11
65872;BME280;52653;50.080;21.992;2022-12-05T07:37:48;99894.77;;;1.57;89.74
65872;BME280;52653;50.080;21.992;2022-12-05T07:40:20;99899.30;;;1.63;89.31
65872;BME280;52653;50.080;21.992;2022-12-05T07:42:52;99898.48;;;1.64;88.93
65872;BME280;52653;50.080;21.992;2022-12-05T07:45:24;99903.79;;;1.67;88.95
65872;BME280;52653;50.080;21.992;2022-12-05T07:47:56;99906.75;;;1.67;88.69
65872;BME280;52653;50.080;21.992;2022-12-05T07:50:28;99895.67;;;1.67;88.74
65872;BME280;52653;50.080;21.992;2022-12-05T07:53:00;99898.70;;;1.69;88.75
65872;BME280;52653;50.080;21.992;2022-12-05T07:55:32;99902.09;;;1.72;88.49
65872;BME280;52653;50.080;21.992;2022-12-05T07:58:03;99906.23;;;1.76;88.29
65872;BME280;52653;50.080;21.992;2022-12-05T08:00:36;99911.50;;;1.83;88.36
65872;BME280;52653;50.080;21.992;2022-12-05T08:03:08;99912.26;;;1.89;88.21
65872;BME280;52653;50.080;21.992;2022-12-05T08:05:40;99909.49;;;1.99;88.27
65872;BME280;52653;50.080;21.992;2022-12-05T08:08:12;99916.39;;;2.07;87.76
65872;BME280;52653;50.080;21.992;2022-12-05T08:10:44;99912.05;;;2.11;87.31
65872;BME280;52653;50.080;21.992;2022-12-05T08:13:16;99910.98;;;2.15;87.58
65872;BME280;52653;50.080;21.992;2022-12-05T08:15:48;99917.38;;;2.19;87.41
65872;BME280;52653;50.080;21.992;2022-12-05T08:18:19;99919.48;;;2.21;87.05
65872;BME280;52653;50.080;21.992;2022-12-05T08:21:01;99915.98;;;2.28;86.99
65872;BME280;52653;50.080;21.992;2022-12-05T08:23:34;99913.50;;;2.37;86.58
65872;BME280;52653;50.080;21.992;2022-12-05T08:26:09;99913.51;;;2.46;86.37
65872;BME280;52653;50.080;21.992;2022-12-05T08:28:42;99915.42;;;2.56;86.27
65872;BME280;52653;50.080;21.992;2022-12-05T08:31:16;99911.79;;;2.61;85.62
65872;BME280;52653;50.080;21.992;2022-12-05T08:33:49;99905.92;;;2.67;85.60
65872;BME280;52653;50.080;21.992;2022-12-05T08:36:29;99904.89;;;2.77;85.27
65872;BME280;52653;50.080;21.992;2022-12-05T08:39:03;99903.92;;;2.79;84.81
65872;BME280;52653;50.080;21.992;2022-12-05T08:41:35;99903.67;;;2.82;84.99
65872;BME280;52653;50.080;21.992;2022-12-05T08:44:08;99894.95;;;2.85;84.96
65872;BME280;52653;50.080;21.992;2022-12-05T08:46:48;99887.91;;;2.87;84.36
65872;BME280;52653;50.080;21.992;2022-12-05T08:49:20;99891.06;;;2.88;84.16
65872;BME280;52653;50.080;21.992;2022-12-05T08:51:52;99893.92;;;2.91;84.01
65872;BME280;52653;50.080;21.992;2022-12-05T08:54:24;99883.01;;;2.91;84.04
65872;BME280;52653;50.080;21.992;2022-12-05T08:56:56;99873.06;;;2.83;83.84
65872;BME280;52653;50.080;21.992;2022-12-05T08:59:29;99872.61;;;2.75;84.07
65872;BME280;52653;50.080;21.992;2022-12-05T09:02:00;99870.17;;;2.69;84.46
65872;BME280;52653;50.080;21.992;2022-12-05T09:04:33;99868.66;;;2.61;84.72
65872;BME280;52653;50.080;21.992;2022-12-05T09:07:04;99863.37;;;2.54;85.20
65872;BME280;52653;50.080;21.992;2022-12-05T09:09:38;99863.77;;;2.50;85.35
65872;BME280;52653;50.080;21.992;2022-12-05T09:12:10;99861.98;;;2.48;85.58
65872;BME280;52653;50.080;21.992;2022-12-05T09:14:43;99861.63;;;2.48;85.59
65872;BME280;52653;50.080;21.992;2022-12-05T09:17:14;99858.33;;;2.47;85.73
65872;BME280;52653;50.080;21.992;2022-12-05T09:19:51;99861.27;;;2.47;85.68
65872;BME280;52653;50.080;21.992;2022-12-05T09:22:23;99864.52;;;2.52;85.91
65872;BME280;52653;50.080;21.992;2022-12-05T09:24:55;99860.40;;;2.57;86.11
65872;BME280;52653;50.080;21.992;2022-12-05T09:27:28;99852.40;;;2.62;85.82
65872;BME280;52653;50.080;21.992;2022-12-05T09:30:00;99848.11;;;2.68;86.10
65872;BME280;52653;50.080;21.992;2022-12-05T09:32:32;99844.61;;;2.72;85.64
65872;BME280;52653;50.080;21.992;2022-12-05T09:35:04;99840.70;;;2.74;85.39
65872;BME280;52653;50.080;21.992;2022-12-05T09:37:36;99842.81;;;2.80;85.68
65872;BME280;52653;50.080;21.992;2022-12-05T09:40:15;99846.15;;;2.92;85.65
65872;BME280;52653;50.080;21.992;2022-12-05T09:42:57;99840.78;;;3.03;85.17
65872;BME280;52653;50.080;21.992;2022-12-05T09:45:36;99840.02;;;3.11;84.72
65872;BME280;52653;50.080;21.992;2022-12-05T09:48:14;99839.30;;;3.21;84.85
65872;BME280;52653;50.080;21.992;2022-12-05T09:50:49;99838.27;;;3.32;84.98
65872;BME280;52653;50.080;21.992;2022-12-05T09:53:26;99839.99;;;3.43;84.78
65872;BME280;52653;50.080;21.992;2022-12-05T09:56:04;99836.27;;;3.52;84.32
65872;BME280;52653;50.080;21.992;2022-12-05T09:58:42;99828.14;;;3.58;84.05
65872;BME280;52653;50.080;21.992;2022-12-05T10:01:34;99816.88;;;3.65;83.23
65872;BME280;52653;50.080;21.992;2022-12-05T10:04:27;99817.55;;;3.76;82.60
65872;BME280;52653;50.080;21.992;2022-12-05T10:07:02;99819.56;;;4.03;82.91
65872;BME280;52653;50.080;21.992;2022-12-05T10:09:50;99819.90;;;4.28;82.01
65872;BME280;52653;50.080;21.992;2022-12-05T10:12:41;99816.27;;;4.42;81.13
65872;BME280;52653;50.080;21.992;2022-12-05T10:15:22;99807.62;;;4.43;80.58
65872;BME280;52653;50.080;21.992;2022-12-05T10:18:00;99805.36;;;4.43;80.33
65872;BME280;52653;50.080;21.992;2022-12-05T10:20:38;99804.42;;;4.41;80.21
65872;BME280;52653;50.080;21.992;2022-12-05T10:23:16;99798.06;;;4.43;80.63
65872;BME280;52653;50.080;21.992;2022-12-05T10:26:11;99801.15;;;4.47;81.13
65872;BME280;52653;50.080;21.992;2022-12-05T10:28:49;99797.17;;;4.55;81.21
65872;BME280;52653;50.080;21.992;2022-12-05T10:31:26;99793.42;;;4.65;80.62
65872;BME280;52653;50.080;21.992;2022-12-05T10:34:05;99790.57;;;4.75;80.22
65872;BME280;52653;50.080;21.992;2022-12-05T10:36:42;99785.98;;;4.80;79.51
65872;BME280;52653;50.080;21.992;2022-12-05T10:39:15;99789.13;;;4.81;79.54
65872;BME280;52653;50.080;21.992;2022-12-05T10:41:47;99785.20;;;4.83;79.65
65872;BME280;52653;50.080;21.992;2022-12-05T10:44:19;99784.58;;;4.86;79.78
65872;BME280;52653;50.080;21.992;2022-12-05T10:46:51;99776.36;;;4.84;79.65
65872;BME280;52653;50.080;21.992;2022-12-05T10:49:24;99776.40;;;4.79;79.62
65872;BME280;52653;50.080;21.992;2022-12-05T10:51:57;99772.77;;;4.72;79.76
65872;BME280;52653;50.080;21.992;2022-12-05T10:54:34;99765.09;;;4.64;79.60
65872;BME280;52653;50.080;21.992;2022-12-05T10:57:20;99756.94;;;4.58;79.84
65872;BME280;52653;50.080;21.992;2022-12-05T10:59:53;99750.63;;;4.56;80.32
65872;BME280;52653;50.080;21.992;2022-12-05T11:02:29;99750.36;;;4.59;80.71
65872;BME280;52653;50.080;21.992;2022-12-05T11:05:02;99749.60;;;4.63;80.81
65872;BME280;52653;50.080;21.992;2022-12-05T11:07:37;99741.94;;;4.69;81.10
65872;BME280;52653;50.080;21.992;2022-12-05T11:10:24;99738.36;;;4.80;81.46
65872;BME280;52653;50.080;21.992;2022-12-05T11:12:58;99735.16;;;4.92;81.32
65872;BME280;52653;50.080;21.992;2022-12-05T11:15:32;99737.34;;;5.02;80.98
65872;BME280;52653;50.080;21.992;2022-12-05T11:21:10;99730.22;;;5.43;80.55
65872;BME280;52653;50.080;21.992;2022-12-05T11:23:42;99725.19;;;5.52;80.10
65872;BME280;52653;50.080;21.992;2022-12-05T11:26:31;99725.11;;;5.64;79.94
65872;BME280;52653;50.080;21.992;2022-12-05T11:29:10;99725.33;;;5.76;80.17
65872;BME280;52653;50.080;21.992;2022-12-05T11:31:58;99722.02;;;5.84;80.04
65872;BME280;52653;50.080;21.992;2022-12-05T11:34:36;99715.40;;;5.92;79.64
65872;BME280;52653;50.080;21.992;2022-12-05T11:37:14;99722.48;;;5.97;79.78
65872;BME280;52653;50.080;21.992;2022-12-05T11:39:51;99715.66;;;5.96;78.43
65872;BME280;52653;50.080;21.992;2022-12-05T11:42:32;99714.78;;;5.87;78.14
65872;BME280;52653;50.080;21.992;2022-12-05T11:45:15;99710.83;;;5.82;78.43
65872;BME280;52653;50.080;21.992;2022-12-05T11:48:06;99708.70;;;5.80;78.63
65872;BME280;52653;50.080;21.992;2022-12-05T11:50:48;99708.65;;;5.77;78.37
65872;BME280;52653;50.080;21.992;2022-12-05T11:53:35;99707.34;;;5.72;78.39
65872;BME280;52653;50.080;21.992;2022-12-05T11:56:19;99705.13;;;5.66;78.64
65872;BME280;52653;50.080;21.992;2022-12-05T11:59:12;99707.53;;;5.56;78.38
65872;BME280;52653;50.080;21.992;2022-12-05T12:01:57;99702.05;;;5.43;78.59
65872;BME280;52653;50.080;21.992;2022-12-05T12:04:43;99706.68;;;5.31;79.10
65872;BME280;52653;50.080;21.992;2022-12-05T12:07:38;99706.37;;;5.25;79.39
65872;BME280;52653;50.080;21.992;2022-12-05T12:10:22;99706.16;;;5.23;79.68
65872;BME280;52653;50.080;21.992;2022-12-05T12:13:10;99701.80;;;5.22;79.76
65872;BME280;52653;50.080;21.992;2022-12-05T12:16:00;99701.84;;;5.24;79.79
65872;BME280;52653;50.080;21.992;2022-12-05T12:18:57;99697.61;;;5.30;79.76
65872;BME280;52653;50.080;21.992;2022-12-05T12:21:44;99691.20;;;5.32;79.70
65872;BME280;52653;50.080;21.992;2022-12-05T12:24:26;99692.93;;;5.31;79.82
65872;BME280;52653;50.080;21.992;2022-12-05T12:27:09;99690.86;;;5.32;80.08
65872;BME280;52653;50.080;21.992;2022-12-05T12:29:55;99690.84;;;5.31;80.02
65872;BME280;52653;50.080;21.992;2022-12-05T12:32:36;99694.60;;;5.28;80.18
65872;BME280;52653;50.080;21.992;2022-12-05T12:35:20;99691.64;;;5.28;80.56
65872;BME280;52653;50.080;21.992;2022-12-05T12:38:22;99688.21;;;5.30;80.79
65872;BME280;52653;50.080;21.992;2022-12-05T12:41:06;99682.42;;;5.36;80.61
65872;BME280;52653;50.080;21.992;2022-12-05T12:43:50;99682.17;;;5.41;80.46
65872;BME280;52653;50.080;21.992;2022-12-05T12:46:39;99685.23;;;5.46;80.26
65872;BME280;52653;50.080;21.992;2022-12-05T12:49:16;99681.58;;;5.54;80.42
65872;BME280;52653;50.080;21.992;2022-12-05T12:51:56;99674.77;;;5.61;80.24
65872;BME280;52653;50.080;21.992;2022-12-05T12:54:42;99677.24;;;5.64;80.33
65872;BME280;52653;50.080;21.992;2022-12-05T12:57:50;99674.66;;;5.65;80.42
65872;BME280;52653;50.080;21.992;2022-12-05T13:00:33;99676.00;;;5.62;80.18
65872;BME280;52653;50.080;21.992;2022-12-05T13:03:12;99679.00;;;5.56;80.00
65872;BME280;52653;50.080;21.992;2022-12-05T13:05:49;99673.95;;;5.47;80.09
65872;BME280;52653;50.080;21.992;2022-12-05T13:08:27;99677.96;;;5.39;80.19
65872;BME280;52653;50.080;21.992;2022-12-05T13:11:01;99678.43;;;5.36;80.57
65872;BME280;52653;50.080;21.992;2022-12-05T13:13:39;99682.80;;;5.37;80.44
65872;BME280;52653;50.080;21.992;2022-12-05T13:16:15;99680.34;;;5.36;80.14
65872;BME280;52653;50.080;21.992;2022-12-05T13:18:53;99678.63;;;5.29;79.64
65872;BME280;52653;50.080;21.992;2022-12-05T13:21:26;99677.38;;;5.27;79.92
65872;BME280;52653;50.080;21.992;2022-12-05T13:23:59;99674.27;;;5.20;79.70
65872;BME280;52653;50.080;21.992;2022-12-05T13:26:33;99681.06;;;5.12;80.09
65872;BME280;52653;50.080;21.992;2022-12-05T13:29:13;99679.83;;;5.04;80.46
65872;BME280;52653;50.080;21.992;2022-12-05T13:31:50;99679.42;;;4.94;80.51
65872;BME280;52653;50.080;21.992;2022-12-05T13:34:44;99680.98;;;4.86;80.83
65872;BME280;52653;50.080;21.992;2022-12-05T13:37:22;99679.75;;;4.78;81.05
65872;BME280;52653;50.080;21.992;2022-12-05T13:40:25;99681.89;;;4.72;80.93
65872;BME280;52653;50.080;21.992;2022-12-05T13:43:18;99674.14;;;4.68;80.96
65872;BME280;52653;50.080;21.992;2022-12-05T13:46:04;99673.19;;;4.64;81.09
65872;BME280;52653;50.080;21.992;2022-12-05T13:48:41;99676.92;;;4.60;81.14
65872;BME280;52653;50.080;21.992;2022-12-05T13:51:23;99674.31;;;4.53;81.08
65872;BME280;52653;50.080;21.992;2022-12-05T13:54:02;99679.61;;;4.43;81.31